Silver Peak Trail, Santa Catalina Island Weather observations

Data are for 10 minute period ending at time listed.
 Day   Time   Solar   Ave.   Ave.  Ave.  Vector    Max.   Stn.    Total
  of    of     Rad.   Air    Rel.  Wind   Wind     Wind   Baro.  Precip.
Year   Day            Temp.  Hum.  Speed  Dir.     Gust   Pres.         
2015   (PST)   W/m2    F      %     mph   deg.      mph    mb.     in.  
------------------------------------------------------------------------
 207   19:30    0.0    59   95.8    10    236.2    14.9    999.0   0.00  
 207   19:40    0.0    59   96.0    10    231.7    14.3    999.0   0.00  
 207   19:50    0.0    59   96.0    10    233.5    13.1    999.0   0.00  
 207   20:00    0.0    59   96.0    10    229.1    13.7    999.0   0.00  
 207   20:10    0.0    59   96.1     9    250.1    14.3    999.0   0.00  
 207   20:20    0.0    59   96.1     8    254.2    12.5    999.0   0.00  
 207   20:30    0.0    59   96.2    10    246.3    14.3    999.0   0.00  
 207   20:40    0.0    59   96.2     9    248.1    12.5    999.0   0.00  
 207   20:50    0.0    59   96.2    10    242.7    13.1    999.0   0.00  
 207   21:00    0.0    59   96.3     9    248.4    13.1    999.0   0.00  
 207   21:10    0.0    58   96.3     8    253.8    12.5    999.0   0.00  
 207   21:20    0.0    59   96.3     4    236.9     6.6    999.0   0.00  
 207   21:30    0.0    59   96.3     6    236.6     9.6    999.0   0.00  
 207   21:40    0.0    59   96.4     7    232.1    11.3    999.0   0.00  
 207   21:50    0.0    59   96.4    10    223.8    14.3    999.0   0.00  
 207   22:00    0.0    59   96.4    10    223.7    13.7    999.0   0.00  
 207   22:10    0.0    60   96.5    10    221.7    13.7    999.0   0.00  
 207   22:20    0.0    59   96.5    10    230.5    12.5    999.0   0.00  
 207   22:30    0.0    59   96.5     6    223.5    10.2    999.0   0.00  
 207   22:40    0.0    59   96.5     9    222.3    10.8    999.0   0.00  
 207   22:50    0.0    59   96.5     8    223.9    10.8    999.0   0.00  
 207   23:00    0.0    58   96.5     8    222.9    13.1    999.0   0.00  
 207   23:10    0.0    58   96.5     8    223.2    10.2    999.0   0.00  
 207   23:20    0.0    58   96.5     9    227.2    11.9    999.0   0.00  
 207   23:30    0.0    58   96.5     7    221.7    10.2    999.0   0.00  
 207   23:40    0.0    58   96.6     7    221.7     9.0    999.0   0.00  
 207   23:50    0.0    58   96.6     6    226.0     8.4    999.0   0.00  
 208    0:00    0.0    58   96.6     6    226.4     8.4    999.0   0.00  
 208    0:10    0.0    58   96.6     3    224.9     6.6    999.0   0.00  
 208    0:20    0.0    58   96.6     2    219.0     4.2    999.0   0.00  
 208    0:30    0.0    58   96.6     2    220.7     4.8    999.0   0.00  
 208    0:40    0.0    58   96.6     1    357.3     3.0    999.0   0.00  
 208    0:50    0.0    58   96.6     2      6.7     3.6    999.0   0.00  
 208    1:00    0.0    58   96.6     4     32.0     5.4    999.0   0.00  
 208    1:10    0.0    58   96.6     4     74.2     7.2    999.0   0.00  
 208    1:20    0.0    58   96.7     3    151.2     6.0    999.0   0.00  
 208    1:30    0.0    58   96.7     4    133.8     7.2    999.0   0.00  
 208    1:40    0.0    58   96.7     4     87.4     6.0    999.0   0.00  
 208    1:50    0.0    58   96.7     6    167.0     8.4    999.0   0.00  
 208    2:00    0.0    58   96.7     5    203.0     7.8    999.0   0.00  
 208    2:10    0.0    58   96.7     6    188.9     9.0    999.0   0.00  
 208    2:20    0.0    58   96.7     6    177.9    11.9    999.0   0.00  
 208    2:30    0.0    58   96.7     6    187.2     9.0    999.0   0.00  
 208    2:40    0.0    58   96.8     6    150.9     9.6    999.0   0.00  
 208    2:50    0.0    58   96.8     6    141.4     9.6    999.0   0.00  
 208    3:00    0.0    58   96.8     4    118.1     7.8    999.0   0.00  
 208    3:10    0.0    58   96.7     6    122.5    10.2    999.0   0.00  
 208    3:20    0.0    58   96.8     4    132.8     7.2    999.0   0.00  
 208    3:30    0.0    58   96.8     5    122.1     8.4    999.0   0.00  
 208    3:40    0.0    58   96.8     4    108.4     7.8    999.0   0.00  
 208    3:50    0.0    58   96.8     4    107.6     7.2    999.0   0.00  
 208    4:00    0.0    58   96.8     5    118.7     8.4    999.0   0.00  
 208    4:10    0.0    58   96.8     4    114.9     7.8    999.0   0.00  
 208    4:20    0.0    58   96.8     3    126.9     6.6    999.0   0.00  
 208    4:30    0.0    58   96.8     4     96.6     9.6    999.0   0.00  
 208    4:40    0.0    58   96.8     5     87.3     7.8    999.0   0.00  
 208    4:50    0.0    58   96.8     6     73.7    10.8    999.0   0.00  
 208    5:00    1.0    58   96.8     5     66.0     7.8    999.0   0.00  
 208    5:10    2.0    58   96.8     6     59.3     9.0    999.0   0.00  
 208    5:20    4.0    58   96.7     6     53.0     9.0    999.0   0.00  
 208    5:30    7.0    58   96.8     5     38.6    10.2    999.0   0.00  
 208    5:40   13.0    58   96.7     6     50.9     8.4    999.0   0.00  
 208    5:50   22.0    58   96.7     7     21.9    11.9    999.0   0.00  
 208    6:00   26.0    58   96.7     7     26.0     9.6    999.0   0.00  
 208    6:10   39.0    58   96.7     7     30.3    10.8    999.0   0.00  
 208    6:20   48.0    59   96.7     6     50.3     7.2    999.0   0.00  
 208    6:30   62.0    59   96.6     4     30.2     9.0    999.0   0.00  
 208    6:40   84.0    59   96.4     7     24.4     9.0    999.0   0.00  
 208    6:50  111.0    59   96.1     6     23.1    10.8    999.0   0.00  
 208    7:00  119.0    59   95.8     7     27.2    10.8    999.0   0.00  
 208    7:10  134.0    59   95.3     7     32.4    10.8    999.0   0.00  
 208    7:20  159.0    60   94.6     6     20.5     9.0    999.0   0.00  
 208    7:30  181.0    60   93.2     5     34.5     7.8    999.0   0.00  
 208    7:40  213.0    60   92.4     6     19.4     8.4    999.0   0.00  
 208    7:50  246.0    61   90.9     7     27.8    10.2    999.0   0.00  
 208    8:00  269.0    61   90.8     7     15.5    13.1    999.0   0.00  
 208    8:10  351.0    62   88.1     6     33.4     8.4    999.0   0.00  
 208    8:20  317.0    62   88.1     5     27.9     9.6    999.0   0.00  
 208    8:30  387.0    63   87.2     7     26.4    10.8    999.0   0.00  
 208    8:40  614.0    64   85.0     7     33.7    11.3    999.0   0.00  
 208    8:50  640.0    64   83.8     8     25.0    12.5    999.0   0.00  
 208    9:00  488.0    64   85.0     7     25.9    11.3    999.0   0.00  
 208    9:10  493.0    64   85.1     7     31.5    10.8    999.0   0.00  
 208    9:20  512.0    64   84.3     7     42.8     9.6    999.0   0.00  
 208    9:30  599.0    65   82.5     6     43.6     9.0    999.0   0.00  
 208    9:40  780.0    66   81.4     6     24.1    12.5    999.0   0.00  
 208    9:50  723.0    65   81.4     7     41.7    11.3    999.0   0.00  
 208   10:00  786.0    66   79.9     6     46.6    10.2    999.0   0.00  
 208   10:10  687.0    66   80.3     4     69.5     9.0    999.0   0.00  
 208   10:20  1045.0    70   74.8     4    278.9     7.2    999.0   0.00  
 208   10:30  777.0    67   77.9     5     58.5     7.8    999.0   0.00  
 208   10:40  876.0    69   75.0     4    238.5     7.8    999.0   0.00  
 208   10:50  874.0    68   75.6     4    215.5    10.8    999.0   0.00  
 208   11:00  816.0    67   78.7     4    219.5    11.3    999.0   0.00  
 208   11:10  979.0    69   75.6     4     65.1    11.3    999.0   0.00  
 208   11:20  999.0    69   74.0     5     39.9     9.6    999.0   0.00  
 208   11:30  1005.0    68   75.1     6     44.4     9.6    999.0   0.00  
 208   11:40  1004.0    68   75.5     6     33.6     9.0    999.0   0.00  
 208   11:50  1005.0    69   74.1     5     26.8     9.0    999.0   0.00  
 208   12:00  1005.0    69   73.8     5     47.1     8.4    999.0   0.00  
 208   12:10  1010.0    69   75.2     4     41.4     7.2    999.0   0.00  
 208   12:20  1018.0    69   73.9     4     45.3    10.2    999.0   0.00  
 208   12:30  1004.0    70   72.0     3     36.2     9.0    999.0   0.00  
 208   12:40  1000.0    70   72.7     5     41.6     9.6    999.0   0.00  
 208   12:50  988.0    70   73.0     4     56.2     9.0    999.0   0.00  
 208   13:00  981.0    72   68.8     3     46.4     7.2    999.0   0.00  
 208   13:10  969.0    72   68.6     3    235.6     6.0    999.0   0.00  
 208   13:20  956.0    72   68.3     4    348.1     9.6    999.0   0.00  
 208   13:30  944.0    72   69.7     4    272.4     9.6    999.0   0.00  
 208   13:40  924.0    72   68.9     3    246.3     9.6    999.0   0.00  
 208   13:50  906.0    73   68.5     4    329.8     8.4    999.0   0.00  
 208   14:00  890.0    73   68.2     3    288.8     6.6    999.0   0.00  
 208   14:10  872.0    72   69.6     3    338.8     6.6    999.0   0.00  
 208   14:20  851.0    73   67.2     3    301.3     6.0    999.0   0.00  
 208   14:30  828.0    73   67.8     3    336.1     6.0    999.0   0.00  
 208   14:40  805.0    72   68.9     4    334.6     7.2    999.0   0.00  
 208   14:50  780.0    72   69.6     4     25.3    13.7    999.0   0.00  
 208   15:00  753.0    72   69.8     4     14.2     7.2    999.0   0.00  
 208   15:10  729.0    72   70.8     4     36.3     7.8    999.0   0.00  
 208   15:20  702.0    72   69.7     4     30.3     7.2    999.0   0.00  
 208   15:30  673.0    74   67.3     3    262.6     6.0    999.0   0.00  
 208   15:40  644.0    76   64.0     4    202.7     7.2    999.0   0.00  
 208   15:50  613.0    75   65.2     4    261.0     9.0    999.0   0.00  
 208   16:00  582.0    75   65.8     5    216.0     9.6    999.0   0.00  
 208   16:10  551.0    75   64.9     4    218.7     8.4    999.0   0.00  
 208   16:20  519.0    74   66.8     3    235.3     6.6    999.0   0.00  
 208   16:30  486.0    72   70.8     3    148.7     6.6    999.0   0.00  
 208   16:40  452.0    72   70.9     3    199.7     6.0    999.0   0.00  
 208   16:50  419.0    74   69.3     3    208.7     6.6    999.0   0.00  
 208   17:00  385.0    74   70.7     3    230.7     6.6    999.0   0.00  
 208   17:10  350.0    72   72.9     4    223.6     8.4    999.0   0.00  
 208   17:20  317.0    70   75.2     5    222.0     9.0    999.0   0.00  
 208   17:30  283.0    71   74.8     4    220.8     7.8    999.0   0.00  
 208   17:40  250.0    71   74.3     5    223.1     9.6    999.0   0.00  
 208   17:50  217.0    68   79.6     6    234.2    10.2    999.0   0.00  
 208   18:00  184.0    67   81.1     6    229.7    10.8    999.0   0.00  
 208   18:10  152.0    67   79.4     5    214.5     9.6    999.0   0.00  
 208   18:20  121.0    66   81.0     4    225.7     6.6    999.0   0.00  
 208   18:30   91.0    67   79.7     6    214.9     8.4    999.0   0.00  
 208   18:40   59.0    65   83.2     3    223.6     5.4    999.0   0.00  
 208   18:50   27.0    63   86.7     5    214.5     7.8    999.0   0.00  
 208   19:00   10.0    62   90.0     6    220.8     8.4    999.0   0.00  
 208   19:10    4.0    61   91.5     6    226.6     7.8    999.0   0.00  
 208   19:20    1.0    61   91.2     6    223.6     7.8    999.0   0.00  

Return to Silver Peak Trail graphs page.


Western Regional Climate Center,wrcc@dri.edu